createdAt,value
2022-09-02T00:01:14.217Z,12.86
2022-09-02T00:03:42.831Z,12.94
2022-09-02T00:06:11.874Z,12.98
2022-09-02T00:08:42.519Z,13.00
2022-09-02T00:11:16.737Z,13.02
2022-09-02T00:13:45.973Z,13.05
2022-09-02T00:16:15.451Z,13.07
2022-09-02T00:18:44.946Z,13.09
2022-09-02T00:21:15.361Z,13.09
2022-09-02T00:23:46.396Z,13.02
2022-09-02T00:26:15.813Z,13.17
2022-09-02T00:28:49.018Z,13.05
2022-09-02T00:31:25.237Z,13.05
2022-09-02T00:33:53.497Z,13.15
2022-09-02T00:36:22.321Z,13.25
2022-09-02T00:38:52.422Z,13.42
2022-09-02T00:41:23.857Z,13.56
2022-09-02T00:43:59.601Z,13.68
2022-09-02T00:46:30.970Z,13.62
2022-09-02T00:49:05.467Z,13.61
2022-09-02T00:51:40.585Z,13.58
2022-09-02T00:54:11.587Z,13.45
2022-09-02T00:56:44.757Z,13.78
2022-09-02T00:59:21.306Z,13.52
2022-09-02T01:01:49.893Z,13.60
2022-09-02T01:04:18.079Z,13.61
2022-09-02T01:06:46.366Z,13.59
2022-09-02T01:09:18.222Z,13.73
2022-09-02T01:11:55.020Z,13.66
2022-09-02T01:14:24.127Z,13.77
2022-09-02T01:17:01.421Z,13.84
2022-09-02T01:19:35.174Z,13.86
2022-09-02T01:22:16.592Z,13.86
2022-09-02T01:24:44.573Z,13.88
2022-09-02T01:27:52.755Z,13.78
2022-09-02T01:30:25.968Z,13.74
2022-09-02T01:32:53.918Z,13.68
2022-09-02T01:35:21.854Z,13.50
2022-09-02T01:37:55.113Z,13.50
2022-09-02T01:40:26.371Z,13.57
2022-09-02T01:43:01.363Z,13.35
2022-09-02T01:45:30.389Z,13.22
2022-09-02T01:47:58.326Z,13.56
2022-09-02T01:50:26.537Z,13.60
2022-09-02T01:52:55.817Z,13.63
2022-09-02T01:55:24.015Z,13.56
2022-09-02T01:57:51.949Z,13.42
2022-09-02T02:00:20.296Z,13.57
2022-09-02T02:02:48.697Z,13.66
2022-09-02T02:05:17.272Z,13.56
2022-09-02T02:07:46.375Z,13.36
2022-09-02T02:10:19.894Z,13.46
2022-09-02T02:12:49.057Z,13.48
2022-09-02T02:15:19.846Z,13.42
2022-09-02T02:17:48.506Z,13.45
2022-09-02T02:20:19.178Z,13.43
2022-09-02T02:22:47.660Z,13.26
2022-09-02T02:25:18.876Z,13.19
2022-09-02T02:27:47.000Z,13.18
2022-09-02T02:30:17.802Z,13.28
2022-09-02T02:32:47.946Z,13.31
2022-09-02T02:35:16.346Z,13.26
2022-09-02T02:37:46.022Z,13.18
2022-09-02T02:40:15.967Z,13.07
2022-09-02T02:42:43.958Z,13.11
2022-09-02T02:45:14.965Z,13.14
2022-09-02T02:47:46.170Z,13.12
2022-09-02T02:50:17.162Z,13.02
2022-09-02T02:52:45.956Z,12.91
2022-09-02T02:55:16.981Z,12.88
2022-09-02T02:57:45.099Z,12.83
2022-09-02T03:00:18.789Z,12.81
2022-09-02T03:02:47.193Z,12.96
2022-09-02T03:05:16.949Z,12.88
2022-09-02T03:07:44.886Z,12.92
2022-09-02T03:10:15.903Z,12.87
2022-09-02T03:12:44.939Z,12.91
2022-09-02T03:15:14.100Z,12.81
2022-09-02T03:17:42.392Z,12.71
2022-09-02T03:20:11.611Z,12.69
2022-09-02T03:22:40.216Z,12.59
2022-09-02T03:25:12.438Z,12.54
2022-09-02T03:27:44.773Z,12.47
2022-09-02T03:30:16.714Z,12.39
2022-09-02T03:32:44.686Z,12.41
2022-09-02T03:35:17.847Z,12.36
2022-09-02T03:37:47.241Z,12.23
2022-09-02T03:40:18.656Z,12.21
2022-09-02T03:42:50.190Z,12.20
2022-09-02T03:45:19.116Z,12.20
2022-09-02T03:47:53.943Z,12.15
2022-09-02T03:50:25.663Z,12.18
2022-09-02T03:52:55.045Z,12.09
2022-09-02T03:55:24.380Z,12.14
2022-09-02T03:57:54.235Z,12.10
2022-09-02T04:00:25.205Z,12.22
2022-09-02T04:02:54.405Z,12.20
2022-09-02T04:05:23.377Z,12.16
2022-09-02T04:07:52.645Z,12.25
2022-09-02T04:10:22.127Z,12.23
2022-09-02T04:12:50.674Z,12.05
2022-09-02T04:15:21.531Z,12.13
2022-09-02T04:17:49.454Z,12.15
2022-09-02T04:20:18.053Z,12.18
2022-09-02T04:22:46.076Z,12.13
2022-09-02T04:25:16.288Z,12.13
2022-09-02T04:27:44.214Z,11.94
2022-09-02T04:30:16.455Z,12.04
2022-09-02T04:32:46.134Z,12.04
2022-09-02T04:35:14.206Z,12.21
2022-09-02T04:37:48.190Z,12.29
2022-09-02T04:40:19.324Z,12.49
2022-09-02T04:42:49.922Z,12.51
2022-09-02T04:45:29.730Z,12.41
2022-09-02T04:48:02.817Z,12.50
2022-09-02T04:50:30.874Z,12.57
2022-09-02T04:53:00.036Z,12.55
2022-09-02T04:55:30.512Z,12.80
2022-09-02T04:57:58.443Z,12.60
2022-09-02T05:00:27.322Z,12.72
2022-09-02T05:02:56.321Z,12.80
2022-09-02T05:05:25.850Z,12.92
2022-09-02T05:07:55.455Z,12.81
2022-09-02T05:10:24.068Z,12.86
2022-09-02T05:12:52.446Z,12.76
2022-09-02T05:15:20.560Z,12.97
2022-09-02T05:17:48.640Z,13.00
2022-09-02T05:20:20.258Z,12.99
2022-09-02T05:22:50.095Z,13.19
2022-09-02T05:25:18.593Z,13.16
2022-09-02T05:27:46.492Z,13.18
2022-09-02T05:30:14.855Z,13.00
2022-09-02T05:32:42.780Z,12.92
2022-09-02T05:35:10.761Z,13.00
2022-09-02T05:37:38.711Z,12.98
2022-09-02T05:40:15.049Z,12.97
2022-09-02T05:42:43.499Z,12.83
2022-09-02T05:45:12.501Z,12.71
2022-09-02T05:47:44.625Z,12.77
2022-09-02T05:50:15.007Z,12.82
2022-09-02T05:52:42.997Z,12.82
2022-09-02T05:55:12.762Z,12.80
2022-09-02T05:57:40.554Z,12.84
2022-09-02T06:00:10.539Z,12.94
2022-09-02T06:02:44.689Z,13.14
2022-09-02T06:05:13.098Z,13.20
2022-09-02T06:07:41.021Z,13.23
2022-09-02T06:10:09.516Z,13.32
2022-09-02T06:12:42.498Z,13.55
2022-09-02T06:15:12.441Z,13.37
2022-09-02T06:17:40.427Z,13.59
2022-09-02T06:20:09.407Z,13.24
2022-09-02T06:22:39.284Z,13.56
2022-09-02T06:25:08.025Z,13.66
2022-09-02T06:27:36.783Z,13.60
2022-09-02T06:30:07.538Z,13.78
2022-09-02T06:32:35.534Z,13.89
2022-09-02T06:35:03.544Z,13.95
2022-09-02T06:37:31.558Z,14.18
2022-09-02T06:39:59.438Z,14.05
2022-09-02T06:42:27.581Z,14.07
2022-09-02T06:44:55.531Z,14.14
2022-09-02T06:47:24.826Z,14.02
2022-09-02T06:49:52.761Z,14.20
2022-09-02T06:52:20.912Z,14.12
2022-09-02T06:54:49.376Z,14.16
2022-09-02T06:57:17.373Z,14.21
2022-09-02T06:59:45.385Z,14.22
2022-09-02T07:02:13.714Z,14.57
2022-09-02T07:05:00.887Z,14.49
2022-09-02T07:07:28.972Z,14.71
2022-09-02T07:09:57.072Z,14.83
2022-09-02T07:12:27.263Z,15.15
2022-09-02T07:14:55.618Z,15.25
2022-09-02T07:17:25.034Z,15.62
2022-09-02T07:19:55.977Z,15.89
2022-09-02T07:22:24.045Z,15.99
2022-09-02T07:24:52.136Z,16.12
2022-09-02T07:27:21.016Z,16.36
2022-09-02T07:29:49.148Z,16.24
2022-09-02T07:32:18.035Z,16.39
2022-09-02T07:34:49.458Z,16.47
2022-09-02T07:37:18.793Z,16.40
2022-09-02T07:39:46.959Z,16.20
2022-09-02T07:42:15.084Z,16.30
2022-09-02T07:44:43.509Z,16.40
2022-09-02T07:47:11.724Z,16.50
2022-09-02T07:52:29.182Z,16.46
2022-09-02T07:54:57.226Z,16.51
2022-09-02T07:57:25.268Z,16.76
2022-09-02T07:59:53.302Z,16.82
2022-09-02T08:02:21.640Z,16.79
2022-09-02T08:04:50.019Z,17.01
2022-09-02T08:07:24.046Z,17.11
2022-09-02T08:09:53.950Z,17.25
2022-09-02T08:12:22.449Z,17.37
2022-09-02T08:14:50.909Z,17.40
2022-09-02T08:17:18.838Z,17.93
2022-09-02T08:19:46.995Z,17.76
2022-09-02T08:22:15.338Z,17.80
2022-09-02T08:24:43.207Z,17.91
2022-09-02T08:27:12.661Z,18.14
2022-09-02T08:29:40.688Z,18.22
2022-09-02T08:32:08.733Z,18.10
2022-09-02T08:34:36.805Z,18.11
2022-09-02T08:37:04.739Z,18.10
2022-09-02T08:39:33.039Z,18.08
2022-09-02T08:42:10.793Z,18.38
2022-09-02T08:44:42.097Z,18.48
2022-09-02T08:47:20.020Z,18.17
2022-09-02T08:49:52.453Z,18.33
2022-09-02T08:52:30.112Z,18.51
2022-09-02T08:54:58.809Z,18.57
2022-09-02T08:57:28.233Z,18.73
2022-09-02T09:00:02.598Z,18.79
2022-09-02T09:02:47.654Z,18.96
2022-09-02T09:05:37.458Z,19.16
2022-09-02T09:08:21.559Z,19.24
2022-09-02T09:11:02.057Z,19.42
2022-09-02T09:14:27.926Z,19.30
2022-09-02T09:17:01.350Z,19.25
2022-09-02T09:19:51.965Z,19.14
2022-09-02T09:22:23.419Z,19.18
2022-09-02T09:24:52.165Z,19.29
2022-09-02T09:27:23.496Z,19.65
2022-09-02T09:29:53.486Z,19.42
2022-09-02T09:32:31.129Z,19.40
2022-09-02T09:35:04.909Z,19.72
2022-09-02T09:37:36.784Z,19.81
2022-09-02T09:40:32.824Z,20.18
2022-09-02T09:43:24.551Z,19.93
2022-09-02T09:45:53.078Z,19.96
2022-09-02T09:48:29.851Z,20.03
2022-09-02T09:51:17.194Z,19.92
2022-09-02T09:53:46.110Z,20.17
2022-09-02T09:56:38.811Z,20.16
2022-09-02T09:59:30.389Z,20.46
2022-09-02T10:01:58.532Z,20.51
2022-09-02T10:04:42.713Z,20.31
2022-09-02T10:07:13.341Z,20.48
2022-09-02T10:09:41.680Z,20.51
2022-09-02T10:12:13.457Z,20.62
2022-09-02T10:14:45.975Z,20.48
2022-09-02T10:17:37.637Z,20.60
2022-09-02T10:20:17.102Z,20.49
2022-09-02T10:23:15.348Z,20.51
2022-09-02T10:26:04.071Z,20.57
2022-09-02T10:29:12.344Z,20.62
2022-09-02T10:31:59.818Z,21.01
2022-09-02T10:34:40.095Z,21.43
2022-09-02T10:37:20.972Z,20.81
2022-09-02T10:40:16.122Z,20.63
2022-09-02T10:43:02.934Z,20.59
2022-09-02T10:45:37.225Z,20.31
2022-09-02T10:48:30.977Z,20.36
2022-09-02T10:51:07.691Z,20.27
2022-09-02T10:53:59.618Z,20.54
2022-09-02T10:56:34.720Z,20.79
2022-09-02T10:59:11.117Z,21.20
2022-09-02T11:01:49.879Z,21.49
2022-09-02T11:04:27.965Z,21.37
2022-09-02T11:07:03.311Z,21.54
2022-09-02T11:09:40.195Z,20.94
2022-09-02T11:12:16.857Z,21.17
2022-09-02T11:15:00.505Z,20.97
2022-09-02T11:17:39.527Z,20.96
2022-09-02T11:20:20.096Z,21.45
2022-09-02T11:22:59.307Z,21.49
2022-09-02T11:25:39.884Z,21.75
2022-09-02T11:28:28.885Z,22.25
2022-09-02T11:31:07.823Z,21.65
2022-09-02T11:33:53.930Z,22.16
2022-09-02T11:36:22.402Z,21.98
2022-09-02T11:39:01.295Z,22.71
2022-09-02T11:42:01.903Z,23.16
2022-09-02T11:45:11.324Z,23.13
2022-09-02T11:48:45.906Z,23.27
2022-09-02T11:51:40.561Z,22.92
2022-09-02T11:54:15.591Z,22.81
2022-09-02T11:56:50.415Z,22.57
2022-09-02T11:59:23.603Z,22.68
2022-09-02T12:01:55.803Z,23.06
2022-09-02T12:04:58.782Z,22.53
2022-09-02T12:07:48.863Z,22.57
2022-09-02T12:11:01.148Z,22.70
2022-09-02T12:13:41.170Z,23.13
2022-09-02T12:16:42.024Z,23.91
2022-09-02T12:19:45.302Z,24.00
2022-09-02T12:22:42.139Z,24.07
2022-09-02T12:25:46.052Z,23.41
2022-09-02T12:28:25.423Z,22.92
2022-09-02T12:31:42.635Z,23.18
2022-09-02T12:35:10.111Z,23.17
2022-09-02T12:37:57.006Z,22.41
2022-09-02T12:40:35.108Z,21.86
2022-09-02T12:43:20.819Z,21.70
2022-09-02T12:45:51.063Z,22.53
2022-09-02T12:48:30.395Z,22.62
2022-09-02T12:51:06.689Z,22.39
2022-09-02T12:53:41.384Z,22.28
2022-09-02T12:56:23.186Z,22.35
2022-09-02T12:58:58.947Z,22.30
2022-09-02T13:01:48.962Z,21.80
2022-09-02T13:04:37.269Z,21.75
2022-09-02T13:08:03.532Z,21.80
2022-09-02T13:11:36.799Z,22.08
2022-09-02T13:14:48.163Z,22.03
2022-09-02T13:17:37.114Z,22.41
2022-09-02T13:21:00.286Z,21.84
2022-09-02T13:24:30.653Z,21.85
2022-09-02T13:27:40.405Z,21.82
2022-09-02T13:30:22.067Z,21.63
2022-09-02T13:33:01.060Z,21.47
2022-09-02T13:35:30.662Z,21.33
2022-09-02T13:38:01.596Z,21.55
2022-09-02T13:40:35.565Z,21.72
2022-09-02T13:43:06.031Z,22.10
2022-09-02T13:45:36.774Z,22.15
2022-09-02T13:48:12.847Z,21.95
2022-09-02T13:50:47.686Z,21.78
2022-09-02T13:53:49.347Z,21.75
2022-09-02T13:56:17.639Z,21.50
2022-09-02T13:58:54.208Z,21.76
2022-09-02T14:01:29.010Z,21.44
2022-09-02T14:04:00.185Z,21.22
2022-09-02T14:06:36.607Z,21.22
2022-09-02T14:09:12.304Z,21.72
2022-09-02T14:11:45.830Z,22.02
2022-09-02T14:14:17.684Z,21.69
2022-09-02T14:16:45.805Z,21.47
2022-09-02T14:19:26.188Z,21.50
2022-09-02T14:21:58.743Z,21.42
2022-09-02T14:24:30.064Z,21.18
2022-09-02T14:27:00.827Z,21.34
2022-09-02T14:29:32.236Z,21.45
2022-09-02T14:32:16.155Z,21.36
2022-09-02T14:34:46.224Z,21.21
2022-09-02T14:37:25.123Z,21.19
2022-09-02T14:40:03.901Z,21.06
2022-09-02T14:42:32.219Z,20.83
2022-09-02T14:45:00.403Z,20.97
2022-09-02T14:47:28.661Z,21.13
2022-09-02T14:49:57.603Z,21.02
2022-09-02T14:52:30.653Z,21.17
2022-09-02T14:54:59.615Z,21.32
2022-09-02T14:57:32.840Z,21.39
2022-09-02T15:00:07.713Z,21.61
2022-09-02T15:02:38.606Z,21.66
2022-09-02T15:05:10.894Z,21.78
2022-09-02T15:07:40.390Z,21.64
2022-09-02T15:10:09.814Z,21.69
2022-09-02T15:12:50.099Z,21.51
2022-09-02T15:15:19.063Z,21.19
2022-09-02T15:17:46.994Z,21.02
2022-09-02T15:20:15.553Z,20.83
2022-09-02T15:22:45.453Z,20.73
2022-09-02T15:25:13.443Z,20.71
2022-09-02T15:27:41.981Z,20.67
2022-09-02T15:30:11.994Z,20.70
2022-09-02T15:32:40.041Z,21.09
2022-09-02T15:35:10.128Z,21.62
2022-09-02T15:37:38.395Z,21.80
2022-09-02T15:40:10.580Z,21.73
2022-09-02T15:42:40.165Z,21.88
2022-09-02T15:45:10.376Z,22.57
2022-09-02T15:47:39.438Z,22.71
2022-09-02T15:50:08.294Z,22.61
2022-09-02T15:52:37.676Z,22.78
2022-09-02T15:55:07.940Z,23.12
2022-09-02T15:57:37.711Z,23.34
2022-09-02T16:00:09.601Z,23.34
2022-09-02T16:02:38.885Z,23.88
2022-09-02T16:05:07.582Z,24.01
2022-09-02T16:07:35.437Z,23.39
2022-09-02T16:10:03.813Z,23.90
2022-09-02T16:12:33.534Z,23.55
2022-09-02T16:15:01.613Z,23.18
2022-09-02T16:17:29.575Z,22.73
2022-09-02T16:19:57.513Z,22.18
2022-09-02T16:22:25.683Z,21.64
2022-09-02T16:24:53.746Z,21.46
2022-09-02T16:27:41.761Z,21.17
2022-09-02T16:30:12.745Z,21.07
2022-09-02T16:32:40.858Z,20.99
2022-09-02T16:35:10.311Z,20.81
2022-09-02T16:37:38.295Z,20.85
2022-09-02T16:40:08.074Z,20.67
2022-09-02T16:42:38.159Z,20.94
2022-09-02T16:45:07.497Z,20.59
2022-09-02T16:47:36.694Z,20.56
2022-09-02T16:50:05.036Z,20.50
2022-09-02T16:52:37.198Z,20.28
2022-09-02T16:55:12.521Z,20.31
2022-09-02T16:57:46.662Z,20.41
2022-09-02T17:00:25.063Z,20.93
2022-09-02T17:03:00.663Z,21.35
2022-09-02T17:05:36.359Z,22.25
2022-09-02T17:08:10.631Z,22.07
2022-09-02T17:10:47.050Z,22.18
2022-09-02T17:13:19.748Z,21.55
2022-09-02T17:15:55.088Z,21.09
2022-09-02T17:18:32.680Z,20.48
2022-09-02T17:21:32.601Z,20.18
2022-09-02T17:24:05.017Z,20.07
2022-09-02T17:26:44.508Z,19.92
2022-09-02T17:29:37.900Z,19.78
2022-09-02T17:32:04.725Z,19.74
2022-09-02T17:34:38.986Z,19.79
2022-09-02T17:37:11.126Z,19.61
2022-09-02T17:39:39.155Z,19.57
2022-09-02T17:42:07.135Z,19.34
2022-09-02T17:44:38.567Z,19.42
2022-09-02T17:47:10.698Z,19.26
2022-09-02T17:49:44.690Z,19.29
2022-09-02T17:52:14.979Z,19.18
2022-09-02T17:54:45.239Z,19.02
2022-09-02T17:57:42.416Z,18.98
2022-09-02T18:00:13.864Z,18.97
2022-09-02T18:03:14.571Z,18.87
2022-09-02T18:06:05.634Z,18.78
2022-09-02T18:08:45.474Z,18.47
2022-09-02T18:11:13.873Z,18.54
2022-09-02T18:13:54.621Z,18.45
2022-09-02T18:16:33.365Z,18.51
2022-09-02T18:19:14.136Z,18.44
2022-09-02T18:22:29.724Z,18.26
2022-09-02T18:25:16.439Z,18.40
2022-09-02T18:28:00.585Z,18.25
2022-09-02T18:30:40.623Z,17.98
2022-09-02T18:33:28.287Z,18.06
2022-09-02T18:36:10.026Z,18.01
2022-09-02T18:38:54.294Z,17.94
2022-09-02T18:41:49.535Z,17.91
2022-09-02T18:44:36.371Z,17.92
2022-09-02T18:47:10.638Z,17.88
2022-09-02T18:49:39.874Z,17.85
2022-09-02T18:52:11.534Z,17.76
2022-09-02T18:54:48.679Z,17.70
2022-09-02T18:57:16.706Z,17.63
2022-09-02T18:59:55.703Z,17.61
2022-09-02T19:02:36.700Z,17.60
2022-09-02T19:05:09.824Z,17.49
2022-09-02T19:07:56.789Z,17.49
2022-09-02T19:10:26.096Z,17.53
2022-09-02T19:12:58.230Z,17.37
2022-09-02T19:15:26.213Z,17.24
2022-09-02T19:17:56.974Z,17.28
2022-09-02T19:20:24.893Z,17.24
2022-09-02T19:22:58.423Z,17.27
2022-09-02T19:25:31.337Z,17.24
2022-09-02T19:28:06.010Z,17.11
2022-09-02T19:30:37.408Z,16.89
2022-09-02T19:33:10.370Z,17.06
2022-09-02T19:35:38.962Z,16.96
2022-09-02T19:38:06.920Z,16.99
2022-09-02T19:40:36.560Z,16.81
2022-09-02T19:43:07.497Z,16.84
2022-09-02T19:45:37.469Z,16.88
2022-09-02T19:48:08.828Z,16.82
2022-09-02T19:50:40.813Z,16.65
2022-09-02T19:53:10.639Z,16.72
2022-09-02T19:55:39.783Z,16.56
2022-09-02T19:58:07.653Z,16.52
2022-09-02T20:00:36.149Z,16.34
2022-09-02T20:03:04.160Z,16.34
2022-09-02T20:05:32.159Z,16.29
2022-09-02T20:08:00.084Z,16.37
2022-09-02T20:10:29.965Z,16.10
2022-09-02T20:13:00.242Z,16.05
2022-09-02T20:15:29.734Z,16.12
2022-09-02T20:18:10.314Z,16.02
2022-09-02T20:20:39.239Z,15.95
2022-09-02T20:23:08.765Z,16.06
2022-09-02T20:25:57.512Z,16.10
2022-09-02T20:28:37.293Z,16.06
2022-09-02T20:31:32.309Z,15.99
2022-09-02T20:34:29.663Z,15.95
2022-09-02T20:37:11.963Z,15.92
2022-09-02T20:39:58.960Z,15.93
2022-09-02T20:43:17.005Z,15.98
2022-09-02T20:45:57.937Z,15.90
2022-09-02T20:48:48.616Z,15.73
2022-09-02T20:51:24.697Z,15.63
2022-09-02T20:54:13.812Z,15.74
2022-09-02T20:56:54.846Z,15.78
2022-09-02T20:59:41.267Z,15.74
2022-09-02T21:02:15.776Z,15.62
2022-09-02T21:04:50.651Z,15.60
2022-09-02T21:07:25.861Z,15.62
2022-09-02T21:10:06.455Z,15.55
2022-09-02T21:12:44.927Z,15.54
2022-09-02T21:15:26.980Z,15.52
2022-09-02T21:18:05.743Z,15.44
2022-09-02T21:20:47.560Z,15.42
2022-09-02T21:23:27.299Z,15.38
2022-09-02T21:25:59.341Z,15.20
2022-09-02T21:28:38.813Z,15.28
2022-09-02T21:31:19.891Z,15.22
2022-09-02T21:33:52.294Z,15.14
2022-09-02T21:36:27.996Z,15.03
2022-09-02T21:39:03.835Z,15.09
2022-09-02T21:41:37.150Z,14.74
2022-09-02T21:44:17.984Z,15.09
2022-09-02T21:47:03.994Z,14.87
2022-09-02T21:49:59.910Z,15.20
2022-09-02T21:52:46.000Z,14.98
2022-09-02T21:55:39.764Z,14.89
2022-09-02T21:58:43.661Z,14.96
2022-09-02T22:01:21.713Z,14.79
2022-09-02T22:03:57.383Z,14.73
2022-09-02T22:06:40.259Z,14.79
2022-09-02T22:09:14.977Z,14.72
2022-09-02T22:11:50.010Z,14.77
2022-09-02T22:14:29.923Z,14.76
2022-09-02T22:17:01.353Z,14.57
2022-09-02T22:19:35.162Z,14.65
2022-09-02T22:22:12.769Z,14.71
2022-09-02T22:24:40.966Z,14.71
2022-09-02T22:27:18.119Z,14.66
2022-09-02T22:29:53.844Z,14.67
2022-09-02T22:32:28.600Z,14.61
2022-09-02T22:35:08.648Z,14.64
2022-09-02T22:37:53.035Z,14.59
2022-09-02T22:40:25.197Z,14.62
2022-09-02T22:43:02.047Z,14.52
2022-09-02T22:45:52.508Z,14.50
2022-09-02T22:48:46.013Z,14.36
2022-09-02T22:51:41.703Z,14.29
2022-09-02T22:54:10.972Z,14.31
2022-09-02T22:56:49.561Z,14.21
2022-09-02T22:59:38.673Z,14.13
2022-09-02T23:02:21.837Z,14.16
2022-09-02T23:05:30.852Z,14.22
2022-09-02T23:07:58.786Z,14.14
2022-09-02T23:10:28.077Z,14.16
2022-09-02T23:13:10.213Z,13.97
2022-09-02T23:15:58.375Z,14.00
2022-09-02T23:18:43.738Z,13.95
2022-09-02T23:21:25.969Z,14.04
2022-09-02T23:24:09.353Z,14.03
2022-09-02T23:26:49.879Z,13.97
2022-09-02T23:29:26.531Z,13.89
2022-09-02T23:32:30.778Z,13.91
2022-09-02T23:35:20.460Z,13.87
2022-09-02T23:38:25.902Z,13.91
2022-09-02T23:41:06.658Z,13.77
2022-09-02T23:43:36.839Z,13.76
2022-09-02T23:46:19.360Z,13.71
2022-09-02T23:49:05.509Z,13.63
2022-09-02T23:51:42.870Z,13.61
2022-09-02T23:54:37.117Z,13.53
2022-09-02T23:57:27.980Z,13.67
